NCAR-RAP Real-Time Weather Data

Output produced by METARs form (14 October 2019  23:34 UTC)
found at http://weather.rap.ucar.edu/surface/
 
KCPR 142253Z 30015G24KT 10SM CLR 17/M11 A2986 RMK AO2 PK WND 30028/2213 SLP073 T01721111
KCPR 142153Z 30021G28KT 10SM CLR 18/M12 A2984 RMK AO2 PK WND 30030/2104 RAB41E43 SLP062 P0000 T01831117
KCPR 142053Z 30020G35KT 10SM CLR 20/M12 A2983 RMK AO2 PK WND 29035/2046 RAB22E32 SLP056 P0000 60000 T02001117 56013
KCPR 141953Z 28018G30KT 10SM CLR 20/M11 A2984 RMK AO2 PK WND 27034/1928 RAB30E39 SLP056 P0000 T02001106
KCPR 141853Z 29017G25KT 10SM CLR 19/M11 A2986 RMK AO2 PK WND 26028/1839 SLP069 T01941106
KCPR 141753Z 28018G26KT 10SM CLR 19/M11 A2988 RMK AO2 PK WND 28026/1751 SLP079 T01891111 10189 20061 58006
KCPR 141653Z 22014KT 10SM CLR 15/M11 A2990 RMK AO2 PK WND 23027/1555 SLP097 T01501106
KCPR 141553Z 22018G24KT 10SM CLR 12/M12 A2991 RMK AO2 PK WND 22028/1527 SLP107 T01171117
KCPR 141453Z 22018G25KT 10SM CLR 10/M12 A2990 RMK AO2 SLP102 T01001122 53006
KCPR 141353Z 22013G23KT 10SM CLR 07/M12 A2989 RMK AO2 SLP107 T00721117
KCPR 141253Z 21015KT 10SM CLR 07/M12 A2988 RMK AO2 SLP099 T00671117
KCPR 141153Z 22012G18KT 10SM CLR 07/M12 A2987 RMK AO2 SLP083 T00671122 10094 20050 53005
KCPR 141053Z 23012KT 10SM CLR 08/M13 A2986 RMK AO2 SLP071 T00781128
KCPR 140953Z AUTO 22014KT 10SM CLR 08/M14 A2986 RMK AO2 SLP071 T00831139
KCPR 140853Z AUTO 23011KT 10SM CLR 08/M14 A2986 RMK AO2 SLP069 T00831139 58009
KCPR 140753Z AUTO 24013KT 10SM CLR 09/M13 A2988 RMK AO2 SLP076 T00941133
KCPR 140653Z AUTO 23009KT 10SM CLR 07/M12 A2988 RMK AO2 SLP084 T00721117 401891067
KCPR 140553Z AUTO 23008KT 10SM CLR 05/M10 A2989 RMK AO2 SLP097 T00501100 10144 20039 58006
KCPR 140453Z AUTO 24009KT 10SM CLR 05/M09 A2990 RMK AO2 SLP104 T00501094
KCPR 140353Z AUTO 23008KT 10SM CLR 05/M09 A2991 RMK AO2 SLP111 T00501094
KCPR 140253Z 26009KT 10SM CLR 06/M09 A2991 RMK AO2 SLP115 T00611089 51007
KCPR 140153Z 22005KT 10SM CLR 06/M09 A2991 RMK AO2 SLP129 T00561089
KCPR 140053Z 29007KT 10SM CLR 09/M09 A2989 RMK AO2 SLP121 T00891089
KCPR 132353Z 21007KT 10SM CLR 15/M08 A2989 RMK AO2 SLP098 T01501078 10189 20133 56008
KCPR 132253Z 25009KT 10SM CLR 18/M11 A2989 RMK AO2 SLP097 T01831111
KCPR 132153Z 24011G23KT 10SM CLR 18/M11 A2990 RMK AO2 SLP113 T01831111
KCPR 132053Z 22014G19KT 10SM CLR 18/M11 A2991 RMK AO2 SLP116 T01781106 56017
KCPR 131953Z 21014G23KT 10SM CLR 17/M09 A2993 RMK AO2 SLP123 T01721094
KCPR 131853Z 20017KT 10SM CLR 16/M09 A2995 RMK AO2 SLP130 T01561089
KCPR 131753Z 19017KT 10SM CLR 13/M08 A2997 RMK AO2 PK WND 20026/1655 SLP146 T01281083 10128 21017 58004
KCPR 131653Z 21017KT 10SM CLR 11/M09 A2999 RMK AO2 PK WND 21027/1639 SLP151 T01111089
KCPR 131553Z 21020G27KT 10SM CLR 09/M09 A2999 RMK AO2 PK WND 21027/1538 SLP152 T00891094
KCPR 131453Z 21017G22KT 10SM CLR 07/M09 A2999 RMK AO2 SLP151 T00671089 53009
KCPR 131353Z 23009KT 10SM CLR 01/M09 A2997 RMK AO2 SLP157 T00061089
KCPR 131253Z 26008KT 10SM CLR M01/M09 A2996 RMK AO2 SLP152 T10111094
KCPR 131153Z 23007KT 10SM CLR 02/M09 A2995 RMK AO2 SLP131 T00171094 10017 21067 55004
KCPR 131053Z 23010KT 10SM CLR M01/M08 A2995 RMK AO2 SLP130 T10111083
KCPR 130953Z AUTO 00000KT 10SM CLR M07/M09 A2996 RMK AO2 SLP142 T10671089
KCPR 130853Z AUTO 29003KT 10SM CLR M04/M09 A2997 RMK AO2 SLP140 T10441089 50000
KCPR 130753Z AUTO 00000KT 10SM CLR M05/M08 A2997 RMK AO2 SLP146 T10501083
KCPR 130653Z AUTO 29003KT 10SM CLR M04/M08 A2997 RMK AO2 SLP145 T10391083 401561056
KCPR 130553Z AUTO 26004KT 10SM CLR M04/M08 A2997 RMK AO2 SLP150 T10391078 10117 21044 50001
KCPR 130453Z AUTO 31004KT 10SM CLR M03/M08 A2997 RMK AO2 SLP157 T10281083
KCPR 130353Z AUTO 25005KT 10SM CLR M01/M08 A2998 RMK AO2 SLP156 T10061078
KCPR 130253Z 34005KT 10SM CLR 02/M09 A2996 RMK AO2 SLP150 T00221089 53009
KCPR 130153Z 17004KT 10SM CLR 03/M08 A2994 RMK AO2 SLP147 T00331083
KCPR 130053Z 28004KT 10SM CLR 05/M08 A2993 RMK AO2 SLP140 T00501083
KCPR 122353Z 32008KT 10SM CLR 12/M08 A2993 RMK AO2 SLP129 T01171083 10156 20100 58004